BRU weather

Brussels Airport
Brussels, Brussels-Capital Region, Belgium

Public forecast

Using degrees Celsius for public forecast. Weather courtesy of forecast.io.

METAR (pilot weather report)

Retrieved 2017/03/24 21:20 UTC (27 minutes ago):

EBBR 242120Z 05006KT CAVOK 06/03 Q1030 NOSIG

TAF (pilot weather forecast)

Retrieved 2017/03/24 18:27 UTC (3 hours ago):

TAF TAF EBBR 241710Z 2418/2524 05008KT CAVOK PROB30 2504/2508 3000 BR MIFG